sensor_id;sensor_type;location;lat;lon;timestamp;P1;durP1;ratioP1;P2;durP2;ratioP2
55847;SDS011;41768;53.882;-1.616;2022-07-10T00:01:21;1.50;;;1.10;;
55847;SDS011;41768;53.882;-1.616;2022-07-10T00:03:47;2.13;;;1.20;;
55847;SDS011;41768;53.882;-1.616;2022-07-10T00:06:15;2.53;;;1.50;;
55847;SDS011;41768;53.882;-1.616;2022-07-10T00:11:44;1.48;;;1.00;;
55847;SDS011;41768;53.882;-1.616;2022-07-10T00:14:10;5.38;;;1.42;;
55847;SDS011;41768;53.882;-1.616;2022-07-10T00:16:36;3.13;;;1.35;;
55847;SDS011;41768;53.882;-1.616;2022-07-10T00:19:03;1.48;;;1.10;;
55847;SDS011;41768;53.882;-1.616;2022-07-10T00:21:29;2.72;;;1.00;;
55847;SDS011;41768;53.882;-1.616;2022-07-10T00:23:55;7.57;;;1.60;;
55847;SDS011;41768;53.882;-1.616;2022-07-10T00:26:22;4.65;;;1.20;;
55847;SDS011;41768;53.882;-1.616;2022-07-10T00:28:50;1.38;;;1.00;;
55847;SDS011;41768;53.882;-1.616;2022-07-10T00:31:16;3.40;;;1.27;;
55847;SDS011;41768;53.882;-1.616;2022-07-10T00:33:42;3.45;;;1.10;;
55847;SDS011;41768;53.882;-1.616;2022-07-10T00:36:08;3.85;;;1.20;;
55847;SDS011;41768;53.882;-1.616;2022-07-10T00:38:36;1.58;;;0.90;;
55847;SDS011;41768;53.882;-1.616;2022-07-10T00:41:02;1.85;;;1.23;;
55847;SDS011;41768;53.882;-1.616;2022-07-10T00:43:28;2.15;;;1.10;;
55847;SDS011;41768;53.882;-1.616;2022-07-10T00:45:54;3.00;;;1.10;;
55847;SDS011;41768;53.882;-1.616;2022-07-10T00:48:22;3.00;;;1.15;;
55847;SDS011;41768;53.882;-1.616;2022-07-10T00:50:48;1.35;;;1.02;;
55847;SDS011;41768;53.882;-1.616;2022-07-10T00:53:14;3.90;;;1.30;;
55847;SDS011;41768;53.882;-1.616;2022-07-10T00:55:40;2.78;;;1.08;;
55847;SDS011;41768;53.882;-1.616;2022-07-10T00:58:07;1.58;;;1.10;;
55847;SDS011;41768;53.882;-1.616;2022-07-10T01:00:34;4.07;;;1.20;;
55847;SDS011;41768;53.882;-1.616;2022-07-10T01:03:02;2.95;;;1.05;;
55847;SDS011;41768;53.882;-1.616;2022-07-10T01:05:28;1.30;;;0.95;;
55847;SDS011;41768;53.882;-1.616;2022-07-10T01:10:45;1.05;;;1.02;;
55847;SDS011;41768;53.882;-1.616;2022-07-10T01:13:12;2.80;;;0.90;;
55847;SDS011;41768;53.882;-1.616;2022-07-10T01:15:39;3.40;;;1.13;;
55847;SDS011;41768;53.882;-1.616;2022-07-10T01:18:07;1.75;;;1.25;;
55847;SDS011;41768;53.882;-1.616;2022-07-10T01:20:34;2.53;;;1.33;;
55847;SDS011;41768;53.882;-1.616;2022-07-10T01:23:00;3.28;;;1.00;;
55847;SDS011;41768;53.882;-1.616;2022-07-10T01:25:27;3.03;;;1.05;;
55847;SDS011;41768;53.882;-1.616;2022-07-10T01:27:55;1.23;;;0.95;;
55847;SDS011;41768;53.882;-1.616;2022-07-10T01:30:21;1.77;;;1.20;;
55847;SDS011;41768;53.882;-1.616;2022-07-10T01:32:47;2.05;;;1.58;;
55847;SDS011;41768;53.882;-1.616;2022-07-10T01:35:13;6.60;;;1.50;;
55847;SDS011;41768;53.882;-1.616;2022-07-10T01:37:40;1.95;;;1.45;;
55847;SDS011;41768;53.882;-1.616;2022-07-10T01:40:06;3.42;;;1.42;;
55847;SDS011;41768;53.882;-1.616;2022-07-10T01:42:33;2.00;;;1.50;;
55847;SDS011;41768;53.882;-1.616;2022-07-10T01:44:59;2.15;;;1.50;;
55847;SDS011;41768;53.882;-1.616;2022-07-10T01:47:25;1.48;;;1.17;;
55847;SDS011;41768;53.882;-1.616;2022-07-10T01:49:55;2.22;;;1.13;;
55847;SDS011;41768;53.882;-1.616;2022-07-10T01:52:21;2.45;;;1.20;;
55847;SDS011;41768;53.882;-1.616;2022-07-10T01:54:47;3.40;;;1.40;;
55847;SDS011;41768;53.882;-1.616;2022-07-10T01:57:14;2.35;;;1.67;;
55847;SDS011;41768;53.882;-1.616;2022-07-10T02:02:25;2.60;;;1.65;;
55847;SDS011;41768;53.882;-1.616;2022-07-10T02:04:51;2.25;;;1.38;;
55847;SDS011;41768;53.882;-1.616;2022-07-10T02:07:18;1.63;;;1.52;;
55847;SDS011;41768;53.882;-1.616;2022-07-10T02:09:47;4.13;;;1.85;;
55847;SDS011;41768;53.882;-1.616;2022-07-10T02:12:14;2.80;;;1.73;;
55847;SDS011;41768;53.882;-1.616;2022-07-10T02:14:41;2.75;;;2.28;;
55847;SDS011;41768;53.882;-1.616;2022-07-10T02:17:07;3.50;;;1.80;;
55847;SDS011;41768;53.882;-1.616;2022-07-10T02:19:34;1.95;;;1.60;;
55847;SDS011;41768;53.882;-1.616;2022-07-10T02:22:00;3.88;;;1.92;;
55847;SDS011;41768;53.882;-1.616;2022-07-10T02:24:26;2.35;;;1.85;;
55847;SDS011;41768;53.882;-1.616;2022-07-10T02:26:53;2.72;;;2.17;;
55847;SDS011;41768;53.882;-1.616;2022-07-10T02:32:23;3.90;;;2.88;;
55847;SDS011;41768;53.882;-1.616;2022-07-10T02:34:49;3.97;;;2.88;;
55847;SDS011;41768;53.882;-1.616;2022-07-10T02:37:15;4.78;;;2.08;;
55847;SDS011;41768;53.882;-1.616;2022-07-10T02:42:45;5.28;;;2.85;;
55847;SDS011;41768;53.882;-1.616;2022-07-10T02:45:11;2.58;;;2.30;;
55847;SDS011;41768;53.882;-1.616;2022-07-10T02:47:37;3.75;;;2.40;;
55847;SDS011;41768;53.882;-1.616;2022-07-10T02:50:03;3.35;;;2.83;;
55847;SDS011;41768;53.882;-1.616;2022-07-10T02:52:29;3.80;;;2.58;;
55847;SDS011;41768;53.882;-1.616;2022-07-10T02:54:56;4.03;;;2.92;;
55847;SDS011;41768;53.882;-1.616;2022-07-10T02:57:22;4.35;;;3.20;;
55847;SDS011;41768;53.882;-1.616;2022-07-10T02:59:49;3.92;;;3.35;;
55847;SDS011;41768;53.882;-1.616;2022-07-10T03:02:15;4.43;;;3.38;;
55847;SDS011;41768;53.882;-1.616;2022-07-10T03:04:41;7.28;;;4.20;;
55847;SDS011;41768;53.882;-1.616;2022-07-10T03:07:07;3.95;;;3.58;;
55847;SDS011;41768;53.882;-1.616;2022-07-10T03:09:36;5.65;;;4.57;;
55847;SDS011;41768;53.882;-1.616;2022-07-10T03:12:02;6.57;;;4.45;;
55847;SDS011;41768;53.882;-1.616;2022-07-10T03:14:28;6.30;;;4.47;;
55847;SDS011;41768;53.882;-1.616;2022-07-10T03:16:54;8.40;;;4.18;;
55847;SDS011;41768;53.882;-1.616;2022-07-10T03:22:24;9.23;;;4.13;;
55847;SDS011;41768;53.882;-1.616;2022-07-10T03:24:50;8.40;;;4.43;;
55847;SDS011;41768;53.882;-1.616;2022-07-10T03:27:16;9.10;;;4.55;;
55847;SDS011;41768;53.882;-1.616;2022-07-10T03:32:28;10.52;;;4.95;;
55847;SDS011;41768;53.882;-1.616;2022-07-10T03:34:54;7.25;;;3.58;;
55847;SDS011;41768;53.882;-1.616;2022-07-10T03:37:20;6.53;;;3.97;;
55847;SDS011;41768;53.882;-1.616;2022-07-10T03:42:32;5.15;;;3.30;;
55847;SDS011;41768;53.882;-1.616;2022-07-10T03:44:58;3.78;;;2.72;;
55847;SDS011;41768;53.882;-1.616;2022-07-10T03:47:24;3.15;;;2.85;;
55847;SDS011;41768;53.882;-1.616;2022-07-10T03:52:54;2.92;;;2.63;;
55847;SDS011;41768;53.882;-1.616;2022-07-10T03:55:20;7.18;;;3.20;;
55847;SDS011;41768;53.882;-1.616;2022-07-10T03:57:47;5.15;;;3.30;;
55847;SDS011;41768;53.882;-1.616;2022-07-10T04:00:28;3.42;;;3.13;;
55847;SDS011;41768;53.882;-1.616;2022-07-10T04:03:03;4.55;;;2.63;;
55847;SDS011;41768;53.882;-1.616;2022-07-10T04:05:29;5.40;;;3.13;;
55847;SDS011;41768;53.882;-1.616;2022-07-10T04:07:58;3.83;;;3.05;;
55847;SDS011;41768;53.882;-1.616;2022-07-10T04:10:25;5.05;;;2.67;;
55847;SDS011;41768;53.882;-1.616;2022-07-10T04:12:51;2.33;;;2.10;;
55847;SDS011;41768;53.882;-1.616;2022-07-10T04:15:17;2.08;;;1.83;;
55847;SDS011;41768;53.882;-1.616;2022-07-10T04:17:45;1.73;;;1.60;;
55847;SDS011;41768;53.882;-1.616;2022-07-10T04:20:11;1.75;;;1.65;;
55847;SDS011;41768;53.882;-1.616;2022-07-10T04:22:37;1.98;;;1.50;;
55847;SDS011;41768;53.882;-1.616;2022-07-10T04:25:04;2.13;;;1.67;;
55847;SDS011;41768;53.882;-1.616;2022-07-10T04:27:30;1.85;;;1.75;;
55847;SDS011;41768;53.882;-1.616;2022-07-10T04:29:56;2.38;;;1.60;;
55847;SDS011;41768;53.882;-1.616;2022-07-10T04:32:22;1.90;;;1.52;;
55847;SDS011;41768;53.882;-1.616;2022-07-10T04:34:48;2.75;;;1.55;;
55847;SDS011;41768;53.882;-1.616;2022-07-10T04:37:14;1.80;;;1.67;;
55847;SDS011;41768;53.882;-1.616;2022-07-10T04:39:41;1.38;;;1.27;;
55847;SDS011;41768;53.882;-1.616;2022-07-10T04:42:07;1.52;;;1.42;;
55847;SDS011;41768;53.882;-1.616;2022-07-10T04:44:34;1.77;;;1.58;;
55847;SDS011;41768;53.882;-1.616;2022-07-10T04:47:01;3.85;;;2.38;;
55847;SDS011;41768;53.882;-1.616;2022-07-10T04:49:29;2.08;;;1.60;;
55847;SDS011;41768;53.882;-1.616;2022-07-10T04:51:55;3.42;;;3.03;;
55847;SDS011;41768;53.882;-1.616;2022-07-10T04:54:22;9.13;;;3.58;;
55847;SDS011;41768;53.882;-1.616;2022-07-10T04:56:48;5.60;;;3.05;;
55847;SDS011;41768;53.882;-1.616;2022-07-10T05:01:59;3.55;;;2.55;;
55847;SDS011;41768;53.882;-1.616;2022-07-10T05:04:25;5.40;;;2.30;;
55847;SDS011;41768;53.882;-1.616;2022-07-10T05:06:51;2.53;;;2.05;;
55847;SDS011;41768;53.882;-1.616;2022-07-10T05:09:17;4.28;;;2.30;;
55847;SDS011;41768;53.882;-1.616;2022-07-10T05:11:45;5.47;;;2.40;;
55847;SDS011;41768;53.882;-1.616;2022-07-10T05:14:11;3.25;;;2.30;;
55847;SDS011;41768;53.882;-1.616;2022-07-10T05:16:39;4.13;;;2.70;;
55847;SDS011;41768;53.882;-1.616;2022-07-10T05:19:07;5.90;;;2.67;;
55847;SDS011;41768;53.882;-1.616;2022-07-10T05:21:33;4.38;;;2.65;;
55847;SDS011;41768;53.882;-1.616;2022-07-10T05:23:59;3.17;;;2.63;;
55847;SDS011;41768;53.882;-1.616;2022-07-10T05:26:25;4.05;;;2.65;;
55847;SDS011;41768;53.882;-1.616;2022-07-10T05:28:53;3.60;;;3.00;;
55847;SDS011;41768;53.882;-1.616;2022-07-10T05:31:19;3.10;;;2.42;;
55847;SDS011;41768;53.882;-1.616;2022-07-10T05:33:45;2.60;;;2.40;;
55847;SDS011;41768;53.882;-1.616;2022-07-10T05:36:12;2.28;;;2.05;;
55847;SDS011;41768;53.882;-1.616;2022-07-10T05:38:38;2.63;;;1.80;;
55847;SDS011;41768;53.882;-1.616;2022-07-10T05:41:04;2.30;;;1.98;;
55847;SDS011;41768;53.882;-1.616;2022-07-10T05:43:30;2.92;;;2.08;;
55847;SDS011;41768;53.882;-1.616;2022-07-10T05:45:56;2.45;;;2.17;;
55847;SDS011;41768;53.882;-1.616;2022-07-10T05:48:23;2.58;;;1.77;;
55847;SDS011;41768;53.882;-1.616;2022-07-10T05:50:49;2.97;;;1.95;;
55847;SDS011;41768;53.882;-1.616;2022-07-10T05:53:15;1.73;;;1.60;;
55847;SDS011;41768;53.882;-1.616;2022-07-10T05:55:44;1.75;;;1.35;;
55847;SDS011;41768;53.882;-1.616;2022-07-10T06:01:13;1.85;;;1.73;;
55847;SDS011;41768;53.882;-1.616;2022-07-10T06:03:39;3.75;;;1.25;;
55847;SDS011;41768;53.882;-1.616;2022-07-10T06:06:05;1.73;;;1.42;;
55847;SDS011;41768;53.882;-1.616;2022-07-10T06:11:35;1.20;;;1.10;;
55847;SDS011;41768;53.882;-1.616;2022-07-10T06:14:01;2.03;;;1.10;;
55847;SDS011;41768;53.882;-1.616;2022-07-10T06:16:28;2.03;;;0.95;;
55847;SDS011;41768;53.882;-1.616;2022-07-10T06:21:57;2.00;;;1.02;;
55847;SDS011;41768;53.882;-1.616;2022-07-10T06:24:42;1.67;;;1.40;;
55847;SDS011;41768;53.882;-1.616;2022-07-10T06:27:08;1.55;;;1.27;;
55847;SDS011;41768;53.882;-1.616;2022-07-10T06:29:35;1.40;;;1.30;;
55847;SDS011;41768;53.882;-1.616;2022-07-10T06:32:01;1.23;;;1.13;;
55847;SDS011;41768;53.882;-1.616;2022-07-10T06:34:27;1.10;;;1.02;;
55847;SDS011;41768;53.882;-1.616;2022-07-10T06:36:53;3.17;;;1.02;;
55847;SDS011;41768;53.882;-1.616;2022-07-10T06:42:23;1.30;;;1.20;;
55847;SDS011;41768;53.882;-1.616;2022-07-10T06:44:49;1.20;;;1.10;;
55847;SDS011;41768;53.882;-1.616;2022-07-10T06:47:17;1.20;;;1.10;;
55847;SDS011;41768;53.882;-1.616;2022-07-10T06:55:14;1.48;;;1.38;;
55847;SDS011;41768;53.882;-1.616;2022-07-10T06:57:42;1.67;;;1.40;;
55847;SDS011;41768;53.882;-1.616;2022-07-10T07:00:08;1.15;;;0.90;;
55847;SDS011;41768;53.882;-1.616;2022-07-10T07:02:35;1.95;;;1.20;;
55847;SDS011;41768;53.882;-1.616;2022-07-10T07:05:01;1.63;;;1.52;;
55847;SDS011;41768;53.882;-1.616;2022-07-10T07:07:27;2.00;;;1.67;;
55847;SDS011;41768;53.882;-1.616;2022-07-10T07:09:57;1.63;;;1.52;;
55847;SDS011;41768;53.882;-1.616;2022-07-10T07:12:23;3.05;;;1.63;;
55847;SDS011;41768;53.882;-1.616;2022-07-10T07:14:49;1.60;;;1.50;;
55847;SDS011;41768;53.882;-1.616;2022-07-10T07:17:15;2.90;;;1.35;;
55847;SDS011;41768;53.882;-1.616;2022-07-10T07:22:51;1.40;;;1.30;;
55847;SDS011;41768;53.882;-1.616;2022-07-10T07:25:35;1.77;;;1.67;;
55847;SDS011;41768;53.882;-1.616;2022-07-10T07:28:04;1.50;;;1.40;;
55847;SDS011;41768;53.882;-1.616;2022-07-10T07:30:30;1.73;;;1.63;;
55847;SDS011;41768;53.882;-1.616;2022-07-10T07:32:56;1.60;;;1.50;;
55847;SDS011;41768;53.882;-1.616;2022-07-10T07:35:22;2.03;;;1.80;;
55847;SDS011;41768;53.882;-1.616;2022-07-10T07:37:49;2.30;;;1.52;;
55847;SDS011;41768;53.882;-1.616;2022-07-10T07:40:17;2.30;;;2.10;;
55847;SDS011;41768;53.882;-1.616;2022-07-10T07:42:45;2.92;;;2.00;;
55847;SDS011;41768;53.882;-1.616;2022-07-10T07:45:11;2.03;;;1.50;;
55847;SDS011;41768;53.882;-1.616;2022-07-10T07:47:49;2.30;;;1.98;;
55847;SDS011;41768;53.882;-1.616;2022-07-10T07:50:16;2.20;;;2.10;;
55847;SDS011;41768;53.882;-1.616;2022-07-10T07:52:43;2.25;;;1.90;;
55847;SDS011;41768;53.882;-1.616;2022-07-10T07:55:10;2.05;;;1.95;;
55847;SDS011;41768;53.882;-1.616;2022-07-10T07:57:37;2.55;;;2.17;;
55847;SDS011;41768;53.882;-1.616;2022-07-10T08:00:03;3.08;;;1.73;;
55847;SDS011;41768;53.882;-1.616;2022-07-10T08:02:33;3.92;;;1.88;;
55847;SDS011;41768;53.882;-1.616;2022-07-10T08:05:00;1.60;;;1.50;;
55847;SDS011;41768;53.882;-1.616;2022-07-10T08:07:33;1.45;;;1.35;;
55847;SDS011;41768;53.882;-1.616;2022-07-10T08:09:59;5.18;;;1.33;;
55847;SDS011;41768;53.882;-1.616;2022-07-10T08:12:25;2.72;;;1.20;;
55847;SDS011;41768;53.882;-1.616;2022-07-10T08:14:51;1.48;;;1.38;;
55847;SDS011;41768;53.882;-1.616;2022-07-10T08:17:17;1.65;;;1.52;;
55847;SDS011;41768;53.882;-1.616;2022-07-10T08:22:30;1.73;;;1.20;;
55847;SDS011;41768;53.882;-1.616;2022-07-10T08:24:56;1.40;;;1.30;;
55847;SDS011;41768;53.882;-1.616;2022-07-10T08:27:22;2.00;;;1.50;;
55847;SDS011;41768;53.882;-1.616;2022-07-10T08:29:49;1.73;;;1.63;;
55847;SDS011;41768;53.882;-1.616;2022-07-10T08:32:15;2.67;;;1.48;;
55847;SDS011;41768;53.882;-1.616;2022-07-10T08:34:41;2.05;;;1.48;;
55847;SDS011;41768;53.882;-1.616;2022-07-10T08:37:07;1.70;;;1.60;;
55847;SDS011;41768;53.882;-1.616;2022-07-10T08:39:34;2.47;;;1.40;;
55847;SDS011;41768;53.882;-1.616;2022-07-10T08:42:00;1.77;;;1.67;;
55847;SDS011;41768;53.882;-1.616;2022-07-10T08:44:27;1.50;;;1.40;;
55847;SDS011;41768;53.882;-1.616;2022-07-10T08:46:53;1.25;;;1.20;;
55847;SDS011;41768;53.882;-1.616;2022-07-10T08:52:28;1.63;;;1.50;;
55847;SDS011;41768;53.882;-1.616;2022-07-10T08:54:56;2.17;;;1.50;;
55847;SDS011;41768;53.882;-1.616;2022-07-10T08:57:22;1.95;;;1.83;;
55847;SDS011;41768;53.882;-1.616;2022-07-10T09:02:36;1.67;;;1.60;;
55847;SDS011;41768;53.882;-1.616;2022-07-10T09:05:02;1.92;;;1.55;;
55847;SDS011;41768;53.882;-1.616;2022-07-10T09:07:36;1.80;;;1.60;;
55847;SDS011;41768;53.882;-1.616;2022-07-10T09:10:06;1.85;;;1.75;;
55847;SDS011;41768;53.882;-1.616;2022-07-10T09:12:48;2.00;;;1.80;;
55847;SDS011;41768;53.882;-1.616;2022-07-10T09:15:15;1.75;;;1.67;;
55847;SDS011;41768;53.882;-1.616;2022-07-10T09:23:08;1.60;;;1.50;;
55847;SDS011;41768;53.882;-1.616;2022-07-10T09:25:35;2.35;;;1.83;;
55847;SDS011;41768;53.882;-1.616;2022-07-10T09:28:03;1.65;;;1.52;;
55847;SDS011;41768;53.882;-1.616;2022-07-10T09:30:33;1.70;;;1.63;;
55847;SDS011;41768;53.882;-1.616;2022-07-10T09:40:58;1.90;;;1.80;;
55847;SDS011;41768;53.882;-1.616;2022-07-10T09:46:22;1.83;;;1.73;;
55847;SDS011;41768;53.882;-1.616;2022-07-10T09:51:19;3.63;;;1.73;;
55847;SDS011;41768;53.882;-1.616;2022-07-10T09:53:46;2.28;;;2.08;;
55847;SDS011;41768;53.882;-1.616;2022-07-10T09:56:12;2.13;;;1.80;;
55847;SDS011;41768;53.882;-1.616;2022-07-10T09:58:39;2.63;;;2.42;;
55847;SDS011;41768;53.882;-1.616;2022-07-10T10:01:05;2.92;;;2.60;;
55847;SDS011;41768;53.882;-1.616;2022-07-10T10:03:36;2.92;;;2.30;;
55847;SDS011;41768;53.882;-1.616;2022-07-10T10:08:41;2.85;;;2.65;;
55847;SDS011;41768;53.882;-1.616;2022-07-10T10:11:12;4.53;;;2.83;;
55847;SDS011;41768;53.882;-1.616;2022-07-10T10:13:40;3.33;;;3.13;;
55847;SDS011;41768;53.882;-1.616;2022-07-10T10:16:07;2.88;;;2.67;;
55847;SDS011;41768;53.882;-1.616;2022-07-10T10:18:34;2.25;;;2.10;;
55847;SDS011;41768;53.882;-1.616;2022-07-10T10:21:02;2.78;;;2.60;;
55847;SDS011;41768;53.882;-1.616;2022-07-10T10:23:31;2.80;;;2.63;;
55847;SDS011;41768;53.882;-1.616;2022-07-10T10:25:58;2.65;;;2.55;;
55847;SDS011;41768;53.882;-1.616;2022-07-10T10:28:24;3.72;;;2.53;;
55847;SDS011;41768;53.882;-1.616;2022-07-10T10:30:55;2.53;;;2.33;;
55847;SDS011;41768;53.882;-1.616;2022-07-10T10:35:59;1.70;;;1.70;;
55847;SDS011;41768;53.882;-1.616;2022-07-10T10:41:37;2.10;;;2.10;;
55847;SDS011;41768;53.882;-1.616;2022-07-10T10:46:53;1.80;;;1.77;;
55847;SDS011;41768;53.882;-1.616;2022-07-10T10:49:22;1.33;;;1.33;;
55847;SDS011;41768;53.882;-1.616;2022-07-10T10:51:59;1.73;;;1.73;;
55847;SDS011;41768;53.882;-1.616;2022-07-10T10:54:25;1.55;;;1.48;;
55847;SDS011;41768;53.882;-1.616;2022-07-10T11:02:40;1.27;;;1.27;;
55847;SDS011;41768;53.882;-1.616;2022-07-10T11:10:26;2.00;;;2.00;;
55847;SDS011;41768;53.882;-1.616;2022-07-10T11:15:35;1.90;;;1.83;;
55847;SDS011;41768;53.882;-1.616;2022-07-10T11:20:56;1.95;;;1.95;;
55847;SDS011;41768;53.882;-1.616;2022-07-10T11:25:59;1.88;;;1.80;;
55847;SDS011;41768;53.882;-1.616;2022-07-10T11:31:23;1.70;;;1.70;;
55847;SDS011;41768;53.882;-1.616;2022-07-10T11:33:50;2.28;;;2.17;;
55847;SDS011;41768;53.882;-1.616;2022-07-10T11:36:18;2.33;;;2.22;;
55847;SDS011;41768;53.882;-1.616;2022-07-10T11:38:55;2.47;;;2.10;;
55847;SDS011;41768;53.882;-1.616;2022-07-10T11:46:14;2.00;;;1.90;;
55847;SDS011;41768;53.882;-1.616;2022-07-10T11:48:40;1.95;;;1.92;;
55847;SDS011;41768;53.882;-1.616;2022-07-10T11:51:27;2.22;;;2.13;;
55847;SDS011;41768;53.882;-1.616;2022-07-10T11:56:22;2.00;;;2.00;;
55847;SDS011;41768;53.882;-1.616;2022-07-10T12:01:44;2.22;;;2.05;;
55847;SDS011;41768;53.882;-1.616;2022-07-10T12:04:11;2.30;;;2.30;;
55847;SDS011;41768;53.882;-1.616;2022-07-10T12:06:37;1.98;;;1.88;;
55847;SDS011;41768;53.882;-1.616;2022-07-10T12:14:16;2.28;;;2.17;;
55847;SDS011;41768;53.882;-1.616;2022-07-10T12:16:46;6.88;;;2.55;;
55847;SDS011;41768;53.882;-1.616;2022-07-10T12:19:13;2.55;;;2.38;;
55847;SDS011;41768;53.882;-1.616;2022-07-10T12:21:42;2.38;;;2.10;;
55847;SDS011;41768;53.882;-1.616;2022-07-10T12:24:09;2.10;;;2.00;;
55847;SDS011;41768;53.882;-1.616;2022-07-10T12:26:36;1.98;;;1.95;;
55847;SDS011;41768;53.882;-1.616;2022-07-10T12:29:03;2.42;;;2.33;;
55847;SDS011;41768;53.882;-1.616;2022-07-10T12:31:30;2.15;;;2.08;;
55847;SDS011;41768;53.882;-1.616;2022-07-10T12:34:00;3.08;;;2.15;;
55847;SDS011;41768;53.882;-1.616;2022-07-10T12:36:43;1.75;;;1.67;;
55847;SDS011;41768;53.882;-1.616;2022-07-10T12:39:12;1.98;;;1.88;;
55847;SDS011;41768;53.882;-1.616;2022-07-10T12:44:31;1.67;;;1.67;;
55847;SDS011;41768;53.882;-1.616;2022-07-10T12:52:18;2.17;;;1.90;;
55847;SDS011;41768;53.882;-1.616;2022-07-10T12:54:44;2.00;;;1.90;;
55847;SDS011;41768;53.882;-1.616;2022-07-10T12:57:10;1.45;;;1.45;;
55847;SDS011;41768;53.882;-1.616;2022-07-10T12:59:37;1.75;;;1.65;;
55847;SDS011;41768;53.882;-1.616;2022-07-10T13:02:14;1.75;;;1.65;;
55847;SDS011;41768;53.882;-1.616;2022-07-10T13:04:51;1.73;;;1.63;;
55847;SDS011;41768;53.882;-1.616;2022-07-10T13:07:17;1.85;;;1.75;;
55847;SDS011;41768;53.882;-1.616;2022-07-10T13:09:45;1.75;;;1.67;;
55847;SDS011;41768;53.882;-1.616;2022-07-10T13:12:15;1.77;;;1.67;;
55847;SDS011;41768;53.882;-1.616;2022-07-10T13:14:41;1.98;;;1.88;;
55847;SDS011;41768;53.882;-1.616;2022-07-10T13:17:07;3.42;;;1.80;;
55847;SDS011;41768;53.882;-1.616;2022-07-10T13:22:21;1.35;;;1.35;;
55847;SDS011;41768;53.882;-1.616;2022-07-10T13:24:47;1.20;;;1.20;;
55847;SDS011;41768;53.882;-1.616;2022-07-10T13:27:13;1.25;;;1.25;;
55847;SDS011;41768;53.882;-1.616;2022-07-10T13:29:42;1.45;;;1.45;;
55847;SDS011;41768;53.882;-1.616;2022-07-10T13:32:08;2.13;;;1.50;;
55847;SDS011;41768;53.882;-1.616;2022-07-10T13:34:34;1.80;;;1.70;;
55847;SDS011;41768;53.882;-1.616;2022-07-10T13:37:01;38.42;;;3.47;;
55847;SDS011;41768;53.882;-1.616;2022-07-10T13:39:28;8.82;;;1.77;;
55847;SDS011;41768;53.882;-1.616;2022-07-10T13:41:54;1.75;;;1.70;;
55847;SDS011;41768;53.882;-1.616;2022-07-10T13:44:20;1.77;;;1.67;;
55847;SDS011;41768;53.882;-1.616;2022-07-10T13:46:46;1.48;;;1.45;;
55847;SDS011;41768;53.882;-1.616;2022-07-10T13:49:15;0.98;;;0.98;;
55847;SDS011;41768;53.882;-1.616;2022-07-10T13:51:41;1.08;;;1.08;;
55847;SDS011;41768;53.882;-1.616;2022-07-10T13:54:07;1.27;;;1.27;;
55847;SDS011;41768;53.882;-1.616;2022-07-10T13:56:33;1.20;;;1.20;;
55847;SDS011;41768;53.882;-1.616;2022-07-10T13:59:01;1.63;;;1.52;;
55847;SDS011;41768;53.882;-1.616;2022-07-10T14:01:27;1.40;;;1.40;;
55847;SDS011;41768;53.882;-1.616;2022-07-10T14:03:53;1.40;;;1.30;;
55847;SDS011;41768;53.882;-1.616;2022-07-10T14:06:19;1.67;;;1.50;;
55847;SDS011;41768;53.882;-1.616;2022-07-10T14:08:45;1.20;;;1.20;;
55847;SDS011;41768;53.882;-1.616;2022-07-10T14:11:11;1.17;;;1.05;;
55847;SDS011;41768;53.882;-1.616;2022-07-10T14:13:37;1.50;;;1.40;;
55847;SDS011;41768;53.882;-1.616;2022-07-10T14:16:03;1.45;;;1.40;;
55847;SDS011;41768;53.882;-1.616;2022-07-10T14:18:30;3.63;;;1.48;;
55847;SDS011;41768;53.882;-1.616;2022-07-10T14:21:02;1.27;;;1.27;;
55847;SDS011;41768;53.882;-1.616;2022-07-10T14:23:28;3.10;;;1.42;;
55847;SDS011;41768;53.882;-1.616;2022-07-10T14:25:54;1.67;;;1.10;;
55847;SDS011;41768;53.882;-1.616;2022-07-10T14:28:21;1.00;;;1.00;;
55847;SDS011;41768;53.882;-1.616;2022-07-10T14:30:48;1.13;;;1.13;;
55847;SDS011;41768;53.882;-1.616;2022-07-10T14:33:14;0.93;;;0.93;;
55847;SDS011;41768;53.882;-1.616;2022-07-10T14:35:41;1.00;;;1.00;;
55847;SDS011;41768;53.882;-1.616;2022-07-10T14:38:07;1.17;;;1.17;;
55847;SDS011;41768;53.882;-1.616;2022-07-10T14:40:33;1.42;;;1.33;;
55847;SDS011;41768;53.882;-1.616;2022-07-10T14:42:59;0.98;;;0.90;;
55847;SDS011;41768;53.882;-1.616;2022-07-10T14:45:25;1.42;;;1.10;;
55847;SDS011;41768;53.882;-1.616;2022-07-10T14:47:53;1.33;;;0.98;;
55847;SDS011;41768;53.882;-1.616;2022-07-10T14:50:20;0.90;;;0.90;;
55847;SDS011;41768;53.882;-1.616;2022-07-10T14:52:46;1.35;;;0.98;;
55847;SDS011;41768;53.882;-1.616;2022-07-10T14:55:12;3.03;;;1.00;;
55847;SDS011;41768;53.882;-1.616;2022-07-10T14:57:41;1.00;;;1.00;;
55847;SDS011;41768;53.882;-1.616;2022-07-10T15:00:07;1.50;;;0.82;;
55847;SDS011;41768;53.882;-1.616;2022-07-10T15:02:34;1.10;;;0.70;;
55847;SDS011;41768;53.882;-1.616;2022-07-10T15:05:00;0.80;;;0.80;;
55847;SDS011;41768;53.882;-1.616;2022-07-10T15:07:27;1.10;;;1.00;;
55847;SDS011;41768;53.882;-1.616;2022-07-10T15:09:53;1.02;;;0.90;;
55847;SDS011;41768;53.882;-1.616;2022-07-10T15:12:19;0.80;;;0.80;;
55847;SDS011;41768;53.882;-1.616;2022-07-10T15:14:45;0.68;;;0.65;;
55847;SDS011;41768;53.882;-1.616;2022-07-10T15:17:12;0.80;;;0.80;;
55847;SDS011;41768;53.882;-1.616;2022-07-10T15:19:38;0.75;;;0.75;;
55847;SDS011;41768;53.882;-1.616;2022-07-10T15:22:04;1.75;;;0.70;;
55847;SDS011;41768;53.882;-1.616;2022-07-10T15:24:30;2.05;;;0.80;;
55847;SDS011;41768;53.882;-1.616;2022-07-10T15:26:56;0.80;;;0.80;;
55847;SDS011;41768;53.882;-1.616;2022-07-10T18:25:17;0.38;;;0.38;;
55847;SDS011;41768;53.882;-1.616;2022-07-10T18:27:44;0.30;;;0.30;;
55847;SDS011;41768;53.882;-1.616;2022-07-10T18:30:10;0.43;;;0.40;;
55847;SDS011;41768;53.882;-1.616;2022-07-10T18:32:37;0.40;;;0.40;;
55847;SDS011;41768;53.882;-1.616;2022-07-10T18:35:21;0.30;;;0.30;;
55847;SDS011;41768;53.882;-1.616;2022-07-10T18:37:48;0.40;;;0.40;;
55847;SDS011;41768;53.882;-1.616;2022-07-10T18:40:14;1.50;;;0.40;;
55847;SDS011;41768;53.882;-1.616;2022-07-10T18:42:40;0.40;;;0.40;;
55847;SDS011;41768;53.882;-1.616;2022-07-10T18:45:06;0.47;;;0.47;;
55847;SDS011;41768;53.882;-1.616;2022-07-10T18:47:33;1.02;;;0.40;;
55847;SDS011;41768;53.882;-1.616;2022-07-10T18:49:59;0.63;;;0.43;;
55847;SDS011;41768;53.882;-1.616;2022-07-10T18:52:25;0.47;;;0.40;;
55847;SDS011;41768;53.882;-1.616;2022-07-10T18:54:51;0.30;;;0.30;;
55847;SDS011;41768;53.882;-1.616;2022-07-10T18:57:17;0.35;;;0.35;;
55847;SDS011;41768;53.882;-1.616;2022-07-10T18:59:43;0.30;;;0.30;;
55847;SDS011;41768;53.882;-1.616;2022-07-10T19:02:10;2.28;;;0.40;;
55847;SDS011;41768;53.882;-1.616;2022-07-10T19:04:36;2.03;;;0.40;;
55847;SDS011;41768;53.882;-1.616;2022-07-10T19:07:03;0.40;;;0.40;;
55847;SDS011;41768;53.882;-1.616;2022-07-10T19:09:30;0.47;;;0.32;;
55847;SDS011;41768;53.882;-1.616;2022-07-10T19:11:56;0.30;;;0.30;;
55847;SDS011;41768;53.882;-1.616;2022-07-10T19:14:24;0.30;;;0.30;;
55847;SDS011;41768;53.882;-1.616;2022-07-10T19:16:50;0.30;;;0.30;;
55847;SDS011;41768;53.882;-1.616;2022-07-10T19:19:18;0.30;;;0.30;;
55847;SDS011;41768;53.882;-1.616;2022-07-10T19:21:44;0.30;;;0.30;;
55847;SDS011;41768;53.882;-1.616;2022-07-10T19:24:10;1.52;;;0.40;;
55847;SDS011;41768;53.882;-1.616;2022-07-10T19:26:37;0.20;;;0.20;;
55847;SDS011;41768;53.882;-1.616;2022-07-10T19:29:03;0.30;;;0.30;;
55847;SDS011;41768;53.882;-1.616;2022-07-10T19:31:29;0.30;;;0.30;;
55847;SDS011;41768;53.882;-1.616;2022-07-10T19:33:55;0.20;;;0.20;;
55847;SDS011;41768;53.882;-1.616;2022-07-10T19:36:23;0.43;;;0.30;;
55847;SDS011;41768;53.882;-1.616;2022-07-10T19:38:49;0.63;;;0.35;;
55847;SDS011;41768;53.882;-1.616;2022-07-10T19:41:15;0.63;;;0.32;;
55847;SDS011;41768;53.882;-1.616;2022-07-10T19:43:42;0.20;;;0.20;;
55847;SDS011;41768;53.882;-1.616;2022-07-10T19:46:08;0.40;;;0.32;;